Time;durP1;ratioP1;P1;durP2;ratioP2;P2;SDS_P1;SDS_P2;PMS_P1;PMS_P2;Temp;Humidity;BMP_temperature;BMP_pressure;BME280_temperature;BME280_humidity;BME280_pressure;Samples;Min_cycle;Max_cycle;Signal;HPM_P1;HPM_P2
2022/03/01 00:01:18;;;;;;;4.13;2.77;;;;;;;1.16;100.00;95118.59;5032050;28;20236;-67
2022/03/01 00:03:44;;;;;;;2.90;2.60;;;;;;;1.28;100.00;95131.44;5016844;23;20260;-64
2022/03/01 00:06:09;;;;;;;3.97;2.83;;;;;;;1.28;100.00;95140.63;5033276;28;20552;-64
2022/03/01 00:08:35;;;;;;;5.00;2.97;;;;;;;1.14;99.98;95127.84;5033598;28;20724;-63
2022/03/01 00:11:00;;;;;;;4.93;3.70;;;;;;;1.15;100.00;95122.78;5033006;28;20224;-64
2022/03/01 00:13:26;;;;;;;4.40;3.13;;;;;;;1.29;99.38;95140.56;5031552;28;20755;-64
2022/03/01 00:15:51;;;;;;;3.70;2.93;;;;;;;1.43;98.42;95148.34;5033075;28;20185;-63
2022/03/01 00:18:17;;;;;;;4.17;3.37;;;;;;;1.44;99.08;95137.44;5032517;28;20241;-63
2022/03/01 00:20:42;;;;;;;3.77;2.90;;;;;;;1.29;100.00;95105.53;5032696;28;20262;-63
2022/03/01 00:23:08;;;;;;;4.00;2.90;;;;;;;1.33;99.93;95114.53;5032905;28;20677;-64
2022/03/01 00:25:33;;;;;;;5.20;3.13;;;;;;;1.26;100.00;95110.66;5032660;28;20767;-63
2022/03/01 00:27:59;;;;;;;6.60;3.27;;;;;;;1.41;99.10;95120.03;5033005;28;20210;-63
2022/03/01 00:30:24;;;;;;;3.57;2.60;;;;;;;1.34;98.61;95131.16;5032463;28;20170;-64
2022/03/01 00:32:50;;;;;;;3.67;2.77;;;;;;;1.33;98.24;95136.25;5032332;28;20182;-63
2022/03/01 00:35:15;;;;;;;2.73;2.53;;;;;;;1.33;97.05;95149.59;5031050;28;20210;-64
2022/03/01 00:37:41;;;;;;;3.50;2.50;;;;;;;1.27;94.07;95192.38;5032405;28;20265;-64
2022/03/01 00:40:07;;;;;;;2.87;2.30;;;;;;;1.27;97.31;95131.50;5032271;28;20228;-63
2022/03/01 00:42:32;;;;;;;3.10;2.50;;;;;;;1.29;95.17;95170.63;5030915;28;20656;-63
2022/03/01 00:44:59;;;;;;;2.93;2.53;;;;;;;1.22;96.43;95134.19;5032215;28;20182;-64
2022/03/01 00:47:24;;;;;;;4.03;2.60;;;;;;;1.30;96.93;95128.84;5030803;28;20191;-64
2022/03/01 00:49:50;;;;;;;4.47;3.10;;;;;;;1.28;97.68;95118.09;5032260;28;20201;-64
2022/03/01 00:52:15;;;;;;;3.63;2.63;;;;;;;1.14;97.93;95112.84;5032132;28;20703;-64
2022/03/01 00:54:41;;;;;;;3.70;2.37;;;;;;;1.13;96.07;95138.75;5031940;28;20212;-63
2022/03/01 00:57:06;;;;;;;4.10;2.83;;;;;;;1.17;96.12;95121.03;5031944;28;20236;-64
2022/03/01 00:59:32;;;;;;;2.90;2.37;;;;;;;1.20;95.41;95140.13;5031922;28;20658;-63
2022/03/01 01:01:57;;;;;;;3.27;2.33;;;;;;;1.33;95.44;95136.25;5031870;28;20174;-63
2022/03/01 01:04:23;;;;;;;2.87;2.17;;;;;;;1.32;95.46;95139.63;5030515;28;20218;-67
2022/03/01 01:06:48;;;;;;;2.93;2.30;;;;;;;1.21;93.10;95177.59;5031712;28;20186;-63
2022/03/01 01:09:14;;;;;;;4.03;2.50;;;;;;;1.20;95.25;95133.44;5031544;28;20273;-63
2022/03/01 01:11:43;;;;;;;2.70;2.33;;;;;;;1.02;96.09;95115.84;5031704;28;20309;-64
2022/03/01 01:14:09;;;;;;;3.43;2.47;;;;;;;1.04;97.28;95107.41;5031965;28;20210;-63
2022/03/01 01:16:34;;;;;;;4.60;3.10;;;;;;;0.99;98.25;95085.94;5031765;28;20177;-63
2022/03/01 01:19:00;;;;;;;4.47;3.17;;;;;;;1.17;97.53;95111.00;5032129;28;20605;-64
2022/03/01 01:22:39;;;;;;;3.40;2.97;;;;;;;1.09;98.40;95087.97;5031832;28;20640;-64
2022/03/01 01:24:14;;;;;;;4.37;2.93;;;;;;;1.04;97.58;95104.91;5031491;28;20688;-64
2022/03/01 01:26:39;;;;;;;4.47;3.00;;;;;;;1.19;97.18;95104.25;5031481;28;20174;-62
2022/03/01 01:29:06;;;;;;;3.60;2.97;;;;;;;1.02;98.19;95084.13;5030116;28;20209;-62
2022/03/01 01:31:31;;;;;;;4.40;3.20;;;;;;;1.02;99.37;95064.09;5031440;28;20187;-63
2022/03/01 01:33:57;;;;;;;3.87;3.30;;;;;;;1.23;98.87;95074.91;5031319;28;20215;-64
2022/03/01 01:36:25;;;;;;;7.17;3.10;;;;;;;1.22;99.33;95049.06;5031536;28;20257;-64
2022/03/01 01:38:53;;;;;;;6.60;3.77;;;;;;;1.21;100.00;95049.13;5030235;28;20206;-64
2022/03/01 01:41:19;;;;;;;5.30;3.27;;;;;;;1.02;100.00;95025.75;5031228;28;20640;-63
2022/03/01 01:43:44;;;;;;;5.90;3.70;;;;;;;0.91;100.00;95033.69;5031663;28;20715;-64
2022/03/01 01:46:10;;;;;;;4.60;3.13;;;;;;;0.78;99.58;95050.09;5031345;28;20708;-64
2022/03/01 01:48:35;;;;;;;4.27;2.83;;;;;;;0.69;99.54;95062.97;5031610;28;20706;-62
2022/03/01 01:51:01;;;;;;;5.07;2.60;;;;;;;0.51;98.60;95071.19;5031245;28;20566;-63
2022/03/01 01:53:26;;;;;;;6.10;3.53;;;;;;;0.26;99.81;95046.34;5031413;28;20244;-64
2022/03/01 01:55:52;;;;;;;4.03;3.27;;;;;;;0.17;100.00;95029.19;5031419;28;20690;-62
2022/03/01 01:58:18;;;;;;;5.07;2.50;;;;;;;0.14;100.00;95023.50;5031305;28;20217;-63
2022/03/01 02:00:44;;;;;;;3.47;2.60;;;;;;;-0.05;100.00;95005.91;5029948;28;20183;-64
2022/03/01 02:03:09;;;;;;;4.77;3.20;;;;;;;-0.09;100.00;95002.72;5031012;28;20232;-64
2022/03/01 02:05:35;;;;;;;3.20;2.73;;;;;;;-0.20;100.00;95001.47;5029623;28;20657;-64
2022/03/01 02:08:01;;;;;;;5.27;3.07;;;;;;;-0.16;100.00;94993.81;5031071;28;20225;-63
2022/03/01 02:10:27;;;;;;;4.20;2.77;;;;;;;-0.11;100.00;95019.47;5031222;28;20717;-63
2022/03/01 02:12:55;;;;;;;4.33;3.10;;;;;;;-0.40;100.00;94996.41;5030907;28;20213;-64
2022/03/01 02:15:21;;;;;;;4.00;2.83;;;;;;;-0.55;100.00;94982.03;5030753;28;20684;-63
2022/03/01 02:17:47;;;;;;;4.70;2.73;;;;;;;-0.40;100.00;94988.94;5030971;28;20189;-63
2022/03/01 02:20:13;;;;;;;3.27;2.50;;;;;;;-0.24;100.00;94985.81;5030984;28;20238;-64
2022/03/01 02:22:38;;;;;;;5.27;3.50;;;;;;;-0.17;100.00;94993.88;5029516;28;20709;-63
2022/03/01 02:25:06;;;;;;;4.70;3.20;;;;;;;-0.02;100.00;94985.78;5030985;28;20192;-64
2022/03/01 02:27:32;;;;;;;6.47;3.13;;;;;;;-0.05;100.00;94969.25;5034912;28;20190;-64
2022/03/01 02:29:57;;;;;;;3.07;2.70;;;;;;;-0.16;100.00;94985.50;5034761;28;20644;-64
2022/03/01 02:32:23;;;;;;;6.07;3.70;;;;;;;-0.20;100.00;94967.34;5035068;28;20230;-64
2022/03/01 02:34:48;;;;;;;5.33;3.63;;;;;;;-0.20;100.00;94979.81;5033232;28;20693;-64
2022/03/01 02:37:14;;;;;;;7.47;3.40;;;;;;;-0.24;100.00;94985.81;5033428;28;20269;-64
2022/03/01 02:39:40;;;;;;;5.17;3.50;;;;;;;-0.14;100.00;94987.09;5034695;28;20280;-64
2022/03/01 02:42:06;;;;;;;3.97;2.70;;;;;;;-0.37;100.00;94996.31;5034605;28;20590;-66
2022/03/01 02:44:31;;;;;;;3.87;2.73;;;;;;;-0.47;100.00;95015.00;5033823;28;20314;-66
2022/03/01 02:46:58;;;;;;;2.50;2.23;;;;;;;-0.68;100.00;95008.28;5033564;28;20176;-64
2022/03/01 02:49:23;;;;;;;3.17;2.60;;;;;;;-0.92;100.00;94987.50;5034234;28;20457;-63
2022/03/01 02:51:50;;;;;;;5.90;2.93;;;;;;;-1.03;100.00;94975.41;5034487;28;20212;-65
2022/03/01 02:54:15;;;;;;;4.03;3.00;;;;;;;-1.16;100.00;94981.72;5034451;28;20279;-66
2022/03/01 02:56:41;;;;;;;3.50;2.87;;;;;;;-1.38;100.00;94963.38;5034585;28;20655;-66
2022/03/01 02:59:07;;;;;;;3.67;2.73;;;;;;;-1.35;100.00;94957.44;5035547;28;20204;-65
2022/03/01 03:01:33;;;;;;;3.90;2.70;;;;;;;-1.11;100.00;94957.41;5034452;23;20233;-64
2022/03/01 03:03:59;;;;;;;3.60;2.83;;;;;;;-1.10;100.00;94980.69;5034565;28;20233;-62
2022/03/01 03:06:25;;;;;;;4.53;2.73;;;;;;;-1.03;100.00;94989.59;5034440;28;20193;-63
2022/03/01 03:08:51;;;;;;;3.17;2.30;;;;;;;-1.18;100.00;95015.03;5034056;28;20192;-64
2022/03/01 03:11:17;;;;;;;3.20;2.17;;;;;;;-1.06;100.00;95005.47;5034907;28;20497;-64
2022/03/01 03:13:43;;;;;;;3.10;2.10;;;;;;;-1.20;100.00;95002.63;5033072;28;20212;-66
2022/03/01 03:16:10;;;;;;;6.30;2.47;;;;;;;-0.89;100.00;94990.72;5033419;28;20300;-67
2022/03/01 03:18:36;;;;;;;3.03;2.37;;;;;;;-0.80;100.00;94981.28;5034321;28;20198;-65
2022/03/01 03:21:01;;;;;;;2.73;2.33;;;;;;;-0.80;100.00;94999.56;5034504;28;20189;-64
2022/03/01 03:23:27;;;;;;;2.80;2.00;;;;;;;-0.72;100.00;95020.06;5034118;28;20203;-64
2022/03/01 03:25:54;;;;;;;2.73;2.30;;;;;;;-0.74;100.00;95044.25;5034084;28;20263;-64
2022/03/01 03:28:20;;;;;;;2.43;2.07;;;;;;;-0.67;100.00;95040.69;5033707;28;20242;-64
2022/03/01 03:30:45;;;;;;;2.53;1.90;;;;;;;-0.75;100.00;95020.19;5033913;28;20573;-63
2022/03/01 03:33:11;;;;;;;2.13;1.93;;;;;;;-0.71;100.00;95015.88;5032066;28;20209;-63
2022/03/01 03:35:37;;;;;;;3.40;2.27;;;;;;;-0.72;100.00;95044.19;5048854;28;20201;-64
2022/03/01 03:38:03;;;;;;;3.10;2.10;;;;;;;-0.73;100.00;95068.34;5033634;28;20205;-63
2022/03/01 03:40:29;;;;;;;3.40;2.07;;;;;;;-0.74;100.00;95051.75;5034064;28;20182;-64
2022/03/01 03:42:54;;;;;;;3.27;2.40;;;;;;;-0.64;100.00;95052.22;5033471;28;20701;-64
2022/03/01 03:45:20;;;;;;;4.20;2.30;;;;;;;-0.57;100.00;95066.97;5033845;28;20185;-64
2022/03/01 03:47:45;;;;;;;4.20;2.20;;;;;;;-0.73;100.00;95052.56;5032115;28;20664;-63
2022/03/01 03:50:11;;;;;;;1.70;1.60;;;;;;;-0.59;100.00;95046.22;5033474;28;20182;-64
2022/03/01 03:52:40;;;;;;;2.53;2.00;;;;;;;-0.54;100.00;95046.84;5033588;28;20192;-64
2022/03/01 03:55:07;;;;;;;3.13;1.87;;;;;;;-0.56;100.00;95040.28;5033198;28;20238;-64
2022/03/01 03:57:34;;;;;;;3.53;2.23;;;;;;;-0.73;100.00;95027.59;5033688;28;20576;-63
2022/03/01 04:00:02;;;;;;;1.80;1.70;;;;;;;-0.74;100.00;95033.44;5033149;28;20180;-64
2022/03/01 04:02:27;;;;;;;3.80;2.23;;;;;;;-0.67;100.00;95018.22;5033177;28;20280;-64
2022/03/01 04:04:52;;;;;;;4.43;2.63;;;;;;;-0.69;100.00;95014.97;5048345;28;20217;-65
2022/03/01 04:07:18;;;;;;;2.83;2.30;;;;;;;-0.57;100.00;95018.72;5031671;28;20192;-64
2022/03/01 04:09:44;;;;;;;2.33;1.57;;;;;;;-0.58;100.00;95047.84;5031635;28;20194;-64
2022/03/01 04:12:10;;;;;;;1.90;1.80;;;;;;;-0.80;100.00;95031.16;5033244;28;20616;-64
2022/03/01 04:14:36;;;;;;;4.13;2.50;;;;;;;-0.78;100.00;95035.25;5048128;28;20754;-64
2022/03/01 04:17:02;;;;;;;3.07;1.93;;;;;;;-0.89;99.77;95049.78;5032727;28;20190;-65
2022/03/01 04:19:34;;;;;;;2.23;1.80;;;;;;;-1.06;100.00;95029.59;5031412;28;20307;-63
2022/03/01 04:21:59;;;;;;;2.47;1.97;;;;;;;-1.08;100.00;95037.13;5048400;28;20655;-63
2022/03/01 04:24:25;;;;;;;2.70;1.87;;;;;;;-1.21;100.00;95025.91;5032751;28;20193;-65
2022/03/01 04:26:50;;;;;;;3.97;2.13;;;;;;;-1.20;100.00;95004.31;5031375;28;20656;-64
2022/03/01 04:29:16;;;;;;;3.83;2.20;;;;;;;-1.24;100.00;94996.13;5032559;28;20722;-63
2022/03/01 04:31:48;;;;;;;3.53;2.23;;;;;;;-1.11;100.00;94986.53;5033067;28;20206;-64
2022/03/01 04:34:14;;;;;;;3.07;2.07;;;;;;;-0.99;100.00;95009.34;5032587;28;20274;-63
2022/03/01 04:36:39;;;;;;;3.23;2.30;;;;;;;-1.06;100.00;95004.66;5032810;28;20186;-63
2022/03/01 04:39:06;;;;;;;2.93;1.93;;;;;;;-1.09;100.00;95029.69;5032417;28;20277;-62
2022/03/01 04:41:32;;;;;;;3.87;2.13;;;;;;;-1.21;100.00;95030.13;5031063;28;20201;-63
2022/03/01 04:43:58;;;;;;;2.43;2.07;;;;;;;-1.21;100.00;95035.09;5032190;28;20216;-65
2022/03/01 04:46:23;;;;;;;3.53;2.27;;;;;;;-1.31;100.00;95016.28;5032676;28;20185;-64
2022/03/01 04:48:49;;;;;;;3.37;2.17;;;;;;;-1.41;100.00;95022.44;5031703;28;20210;-64
2022/03/01 04:51:21;;;;;;;2.40;2.07;;;;;;;-1.59;100.00;95028.03;5032581;28;20210;-63
2022/03/01 04:53:47;;;;;;;3.27;1.70;;;;;;;-1.43;100.00;95019.19;5030925;28;20221;-63
2022/03/01 04:56:12;;;;;;;2.97;2.33;;;;;;;-1.43;100.00;94987.63;5032075;28;20221;-64
2022/03/01 04:58:38;;;;;;;2.40;1.80;;;;;;;-1.39;100.00;94996.63;5031997;28;20224;-64
2022/03/01 05:01:03;;;;;;;3.50;2.20;;;;;;;-1.17;100.00;94994.25;5032166;28;20193;-63
2022/03/01 05:03:29;;;;;;;2.87;2.03;;;;;;;-1.04;100.00;95025.34;5032858;28;20197;-64
2022/03/01 05:05:54;;;;;;;2.97;2.30;;;;;;;-1.09;100.00;95029.69;5032148;28;20188;-65
2022/03/01 05:08:20;;;;;;;2.87;2.20;;;;;;;-1.17;100.00;95004.22;5032412;28;20203;-64
2022/03/01 05:10:46;;;;;;;3.27;2.40;;;;;;;-1.00;100.00;95017.72;5030622;28;20193;-63
2022/03/01 05:13:12;;;;;;;4.83;2.60;;;;;;;-0.94;100.00;95006.72;5032502;28;20213;-64
2022/03/01 05:15:37;;;;;;;3.57;1.93;;;;;;;-0.98;100.00;95025.16;5031966;28;20197;-63
2022/03/01 05:18:03;;;;;;;2.37;2.13;;;;;;;-1.03;100.00;95036.97;5031928;28;20298;-65
2022/03/01 05:20:28;;;;;;;4.07;2.90;;;;;;;-1.13;100.00;95023.19;5031896;28;20189;-64
2022/03/01 05:22:54;;;;;;;4.20;2.47;;;;;;;-0.98;100.00;95053.41;5031617;28;20211;-65
2022/03/01 05:25:23;;;;;;;2.67;1.77;;;;;;;-1.04;100.00;95040.31;5031658;28;20637;-64
2022/03/01 05:27:51;;;;;;;3.10;2.27;;;;;;;-1.01;100.00;95072.66;5031482;28;20178;-63
2022/03/01 05:30:18;;;;;;;5.40;3.50;;;;;;;-0.85;98.97;95104.50;5031475;28;20283;-64
2022/03/01 05:32:47;;;;;;;3.33;2.57;;;;;;;0.45;100.00;95028.94;5031532;28;20238;-65
2022/03/01 05:35:15;;;;;;;3.80;2.23;;;;;;;0.00;100.00;95159.75;5031587;28;20323;-63
2022/03/01 05:37:42;;;;;;;4.53;3.07;;;;;;;-0.34;98.39;95166.81;5030303;28;20185;-64
2022/03/01 05:40:09;;;;;;;3.00;2.63;;;;;;;-0.98;97.54;95148.19;5031480;28;20290;-64
2022/03/01 05:42:35;;;;;;;3.43;2.30;;;;;;;-1.05;100.00;95099.38;5031747;28;20222;-63
2022/03/01 05:45:01;;;;;;;5.17;2.13;;;;;;;-1.11;98.87;95121.22;5031375;28;20271;-64
2022/03/01 05:47:27;;;;;;;4.17;2.37;;;;;;;-1.49;99.34;95109.94;5030083;28;20228;-65
2022/03/01 05:49:53;;;;;;;5.03;2.80;;;;;;;-1.67;100.00;95084.78;5031458;28;20226;-62
2022/03/01 05:52:19;;;;;;;5.10;2.80;;;;;;;-1.80;100.00;95067.72;5031780;28;20195;-63
2022/03/01 05:54:45;;;;;;;3.73;2.97;;;;;;;-1.77;100.00;95106.66;5046455;28;20216;-64
2022/03/01 05:57:10;;;;;;;4.17;2.90;;;;;;;-1.91;100.00;95091.31;5030355;28;20530;-64
2022/03/01 05:59:36;;;;;;;4.87;2.80;;;;;;;-1.94;100.00;95097.19;5031095;28;20282;-63
2022/03/01 06:02:01;;;;;;;4.73;2.80;;;;;;;-1.89;100.00;95082.94;5031502;28;20201;-63
2022/03/01 06:04:27;;;;;;;3.93;2.73;;;;;;;-1.80;100.00;95086.84;5031554;28;20749;-64
2022/03/01 06:06:52;;;;;;;3.03;2.43;;;;;;;-1.69;100.00;95082.34;5031730;28;20198;-65
2022/03/01 06:09:18;;;;;;;6.23;2.97;;;;;;;-1.49;100.00;95089.19;5031220;28;20200;-64
2022/03/01 06:11:43;;;;;;;7.93;3.23;;;;;;;-1.29;100.00;95099.34;5031961;28;20199;-64
2022/03/01 06:14:09;;;;;;;3.90;2.90;;;;;;;-1.16;100.00;95098.91;5031063;28;20705;-65
2022/03/01 06:16:34;;;;;;;6.57;3.43;;;;;;;-1.03;100.00;95106.81;5031489;28;20548;-64
2022/03/01 06:19:00;;;;;;;4.53;3.27;;;;;;;-1.00;100.00;95134.13;5031084;28;20200;-63
2022/03/01 06:21:34;;;;;;;9.40;4.33;;;;;;;-1.08;100.00;95101.16;5031525;28;20203;-64
2022/03/01 06:24:01;;;;;;;8.23;3.80;;;;;;;-0.97;100.00;95104.91;5031169;28;20213;-64
2022/03/01 06:26:27;;;;;;;9.50;4.37;;;;;;;-0.98;100.00;95107.47;5031926;28;20192;-63
2022/03/01 06:28:53;;;;;;;5.33;4.03;;;;;;;-0.83;100.00;95097.00;5031416;28;20206;-64
2022/03/01 06:31:18;;;;;;;6.30;4.30;;;;;;;-0.86;100.00;95102.06;5031479;28;20273;-63
2022/03/01 06:33:44;;;;;;;7.23;4.67;;;;;;;-0.64;100.00;95080.50;5031005;28;20533;-66
2022/03/01 06:36:10;;;;;;;7.00;4.30;;;;;;;-0.59;100.00;95121.09;5031272;28;20642;-63
2022/03/01 06:38:35;;;;;;;6.77;4.80;;;;;;;-0.40;100.00;95119.59;5031179;28;20258;-65
2022/03/01 06:41:01;;;;;;;8.50;4.00;;;;;;;-0.31;100.00;95124.28;5031360;28;20244;-63
2022/03/01 06:43:26;;;;;;;6.53;3.93;;;;;;;-0.18;99.78;95144.59;5031023;28;20584;-63
2022/03/01 06:45:52;;;;;;;8.37;4.43;;;;;;;-0.15;100.00;95130.34;5031297;28;20193;-63
2022/03/01 06:48:18;;;;;;;5.30;3.70;;;;;;;-0.03;98.82;95142.41;5030783;28;20297;-63
2022/03/01 06:50:44;;;;;;;8.77;5.20;;;;;;;0.01;99.37;95140.59;5046348;28;20208;-63
2022/03/01 06:53:13;;;;;;;6.03;3.60;;;;;;;0.10;99.38;95131.97;5029565;28;20213;-63
2022/03/01 06:55:40;;;;;;;5.20;3.87;;;;;;;0.25;99.99;95133.88;5031161;28;20222;-64
2022/03/01 06:58:06;;;;;;;5.53;4.23;;;;;;;0.53;100.00;95124.47;5030785;28;20694;-63
2022/03/01 07:00:32;;;;;;;6.67;3.57;;;;;;;0.63;99.94;95129.06;5030934;28;20210;-64
2022/03/01 07:02:57;;;;;;;9.43;3.80;;;;;;;0.91;98.76;95161.31;5030768;28;20212;-64
2022/03/01 07:05:23;;;;;;;7.13;4.37;;;;;;;1.12;97.45;95179.66;5030789;28;20178;-64
2022/03/01 07:07:49;;;;;;;4.47;3.67;;;;;;;1.30;98.03;95163.91;5045953;28;20190;-63
2022/03/01 07:10:15;;;;;;;4.03;2.87;;;;;;;1.53;96.54;95179.63;5029404;28;20178;-65
2022/03/01 07:12:42;;;;;;;4.63;2.67;;;;;;;1.61;95.04;95202.69;5033289;28;20265;-64
2022/03/01 07:15:09;;;;;;;3.50;2.63;;;;;;;1.72;95.31;95188.88;5034014;28;20225;-64
2022/03/01 07:17:34;;;;;;;5.03;3.13;;;;;;;1.92;93.56;95222.22;5034290;28;20197;-64
2022/03/01 07:20:00;;;;;;;4.63;2.70;;;;;;;2.01;94.49;95201.81;5032645;28;20648;-64
2022/03/01 07:22:25;;;;;;;5.00;2.90;;;;;;;1.94;93.15;95214.69;5033934;28;20221;-62
2022/03/01 07:24:51;;;;;;;3.87;2.33;;;;;;;1.94;92.88;95224.69;5032715;28;20288;-65
2022/03/01 07:27:16;;;;;;;4.77;3.07;;;;;;;2.13;92.53;95215.50;5034492;28;20241;-64
2022/03/01 07:29:42;;;;;;;5.23;3.40;;;;;;;2.32;94.33;95181.22;5033665;28;20199;-64
2022/03/01 07:32:09;;;;;;;4.00;3.23;;;;;;;2.44;95.00;95170.66;5032700;28;20190;-65
2022/03/01 07:34:36;;;;;;;4.27;2.83;;;;;;;2.45;92.92;95207.38;5033635;28;20213;-64
2022/03/01 07:37:02;;;;;;;5.13;3.13;;;;;;;2.75;93.65;95195.97;5032592;28;20681;-64
2022/03/01 07:39:28;;;;;;;8.33;3.83;;;;;;;2.80;94.15;95180.69;5033654;28;20201;-64
2022/03/01 07:41:53;;;;;;;5.60;3.17;;;;;;;2.91;91.81;95221.19;5032646;28;20182;-63
2022/03/01 07:44:19;;;;;;;5.13;3.13;;;;;;;2.61;91.21;95222.59;5033659;28;20233;-63
2022/03/01 07:46:45;;;;;;;3.40;2.80;;;;;;;2.58;89.78;95226.03;5034127;28;20178;-63
2022/03/01 07:49:11;;;;;;;5.50;3.30;;;;;;;2.66;90.75;95216.47;5032152;28;20213;-63
2022/03/01 07:51:36;;;;;;;3.20;2.90;;;;;;;2.79;92.78;95167.31;5033854;28;20255;-64
2022/03/01 07:54:02;;;;;;;7.17;3.53;;;;;;;3.02;92.32;95182.16;5033254;28;20209;-65
2022/03/01 07:56:28;;;;;;;6.47;4.20;;;;;;;3.07;88.85;95254.75;5033555;28;20190;-63
2022/03/01 07:58:54;;;;;;;8.07;4.03;;;;;;;3.07;90.15;95217.09;5032005;28;20558;-64
2022/03/01 08:01:20;;;;;;;5.77;3.40;;;;;;;3.26;92.59;95165.09;5033484;28;20202;-63
2022/03/01 08:03:46;;;;;;;7.70;4.20;;;;;;;3.32;88.13;95255.22;5033269;28;20289;-64
2022/03/01 08:06:12;;;;;;;7.20;4.20;;;;;;;3.25;89.41;95219.53;5033656;28;20199;-64
2022/03/01 08:08:38;;;;;;;8.50;4.33;;;;;;;3.15;88.79;95225.09;5033212;28;20289;-64
2022/03/01 08:11:04;;;;;;;5.77;3.80;;;;;;;3.24;86.69;95270.66;5033585;28;20222;-63
2022/03/01 08:13:31;;;;;;;5.93;3.90;;;;;;;2.95;88.14;95232.72;5032738;28;20211;-63
2022/03/01 08:15:56;;;;;;;4.67;3.57;;;;;;;3.11;89.58;95203.50;5033241;28;20190;-63
2022/03/01 08:18:22;;;;;;;10.10;3.83;;;;;;;3.28;90.56;95214.38;5032878;28;20264;-63
2022/03/01 08:20:47;;;;;;;4.20;3.17;;;;;;;3.48;88.37;95240.22;5032819;28;20186;-64
2022/03/01 08:23:13;;;;;;;5.97;3.63;;;;;;;3.46;85.52;95295.59;5030541;28;20199;-63
2022/03/01 08:25:39;;;;;;;5.07;3.73;;;;;;;3.63;86.14;95292.28;5048105;28;20187;-64
2022/03/01 08:28:05;;;;;;;5.03;3.37;;;;;;;3.85;87.92;95248.44;5032753;28;20595;-63
2022/03/01 08:30:31;;;;;;;3.70;3.23;;;;;;;3.99;87.39;95241.03;5031345;28;20191;-64
2022/03/01 08:32:57;;;;;;;6.77;3.50;;;;;;;4.06;84.78;95301.91;5032519;28;20711;-62
2022/03/01 08:35:23;;;;;;;5.67;3.13;;;;;;;4.07;84.09;95293.47;5032632;28;20201;-63
2022/03/01 08:37:51;;;;;;;6.90;2.70;;;;;;;4.31;81.86;95352.66;5032514;28;20321;-64
2022/03/01 08:40:19;;;;;;;4.60;3.30;;;;;;;4.35;83.92;95302.97;5032237;28;20260;-64
2022/03/01 08:42:45;;;;;;;4.03;2.83;;;;;;;4.55;81.69;95338.84;5032340;28;20174;-63
2022/03/01 08:45:11;;;;;;;4.10;2.90;;;;;;;4.91;83.33;95304.22;5032321;28;20218;-64
2022/03/01 08:47:37;;;;;;;5.10;3.57;;;;;;;5.24;82.81;95303.31;5032339;28;20198;-63
2022/03/01 08:50:03;;;;;;;3.60;2.90;;;;;;;5.38;83.37;95288.28;5032209;28;20179;-64
2022/03/01 08:52:30;;;;;;;4.50;3.33;;;;;;;5.51;82.78;95294.28;5032221;28;20185;-64
2022/03/01 08:54:55;;;;;;;5.07;3.57;;;;;;;5.89;80.79;95329.13;5031971;28;20216;-64
2022/03/01 08:57:21;;;;;;;4.47;2.87;;;;;;;5.94;79.05;95379.31;5032754;28;20194;-64
2022/03/01 08:59:46;;;;;;;7.50;3.47;;;;;;;6.05;78.53;95368.66;5032163;28;20218;-63
2022/03/01 09:02:11;;;;;;;3.53;2.97;;;;;;;6.11;75.05;95341.34;5032454;28;20254;-63
2022/03/01 09:04:37;;;;;;;3.30;2.80;;;;;;;6.21;72.44;95380.31;5032304;28;20207;-63
2022/03/01 09:07:05;;;;;;;3.17;2.80;;;;;;;6.35;70.83;95400.56;5032471;28;20191;-63
2022/03/01 09:09:32;;;;;;;4.80;2.70;;;;;;;6.81;70.54;95388.63;5030592;28;20293;-63
2022/03/01 09:11:59;;;;;;;7.00;2.90;;;;;;;6.87;67.87;95427.91;5032434;28;20657;-63
2022/03/01 09:14:24;;;;;;;3.57;2.67;;;;;;;6.77;67.28;95398.09;5031930;28;20241;-63
2022/03/01 09:16:50;;;;;;;5.03;2.93;;;;;;;6.65;69.44;95343.25;5032299;28;20630;-63
2022/03/01 09:19:16;;;;;;;4.10;2.93;;;;;;;6.67;66.22;95421.47;5031725;28;20233;-62
2022/03/01 09:21:42;;;;;;;4.70;2.90;;;;;;;6.38;68.71;95357.44;5031825;28;20213;-64
2022/03/01 09:24:07;;;;;;;4.30;3.57;;;;;;;6.81;69.63;95337.31;5031671;28;20282;-64
2022/03/01 09:26:33;;;;;;;4.67;3.17;;;;;;;6.64;71.71;95295.34;5031947;28;20308;-63
2022/03/01 09:28:59;;;;;;;3.90;3.50;;;;;;;6.30;69.69;95283.84;5031446;28;20277;-63
2022/03/01 09:31:25;;;;;;;9.30;3.90;;;;;;;6.05;70.96;95263.47;5031855;28;20225;-64
2022/03/01 09:33:50;;;;;;;5.07;3.90;;;;;;;5.65;69.06;95287.59;5031669;28;20294;-65
2022/03/01 09:36:16;;;;;;;5.50;3.53;;;;;;;5.37;70.75;95251.38;5031875;28;20338;-64
2022/03/01 09:38:42;;;;;;;4.60;3.87;;;;;;;5.41;72.76;95223.38;5031798;28;20208;-66
2022/03/01 09:41:08;;;;;;;7.17;4.10;;;;;;;5.45;72.06;95237.44;5032090;28;20276;-63
2022/03/01 09:43:38;;;;;;;6.37;3.73;;;;;;;5.54;72.41;95229.34;5031873;28;20641;-63
2022/03/01 09:46:06;;;;;;;4.70;3.40;;;;;;;4.99;70.26;95258.47;5030471;28;20196;-63
2022/03/01 09:48:31;;;;;;;5.43;3.77;;;;;;;4.62;72.40;95216.81;5029988;28;20202;-64
2022/03/01 09:51:00;;;;;;;6.90;4.20;;;;;;;4.66;73.42;95213.22;5031157;28;20187;-63
2022/03/01 09:53:26;;;;;;;4.30;3.30;;;;;;;4.38;72.82;95209.72;5031321;28;20230;-63
2022/03/01 09:55:53;;;;;;;6.27;3.87;;;;;;;4.44;75.83;95164.09;5031620;28;20193;-64
2022/03/01 09:58:18;;;;;;;4.83;3.43;;;;;;;4.39;73.32;95197.03;5031333;28;20207;-62
2022/03/01 10:00:45;;;;;;;6.13;3.77;;;;;;;4.28;73.79;95176.66;5031408;28;20182;-63
2022/03/01 10:03:16;;;;;;;5.37;3.47;;;;;;;4.35;75.27;95167.91;5031234;28;20206;-63
2022/03/01 10:05:42;;;;;;;5.27;3.27;;;;;;;4.20;74.07;95173.75;5031339;28;20178;-63
2022/03/01 10:08:15;;;;;;;6.67;3.27;;;;;;;4.21;73.50;95193.78;5031247;28;20212;-63
2022/03/01 10:10:43;;;;;;;4.57;3.67;;;;;;;4.11;75.60;95142.31;5031400;28;20536;-64
2022/03/01 10:13:09;;;;;;;4.73;3.63;;;;;;;4.12;75.24;95166.56;5031177;28;20293;-63
2022/03/01 10:15:35;;;;;;;8.40;3.90;;;;;;;4.06;75.03;95166.09;5031254;28;20253;-63
2022/03/01 10:18:12;;;;;;;5.43;3.60;;;;;;;4.04;74.79;95172.91;5031132;28;20202;-63
2022/03/01 10:20:40;;;;;;;8.87;3.97;;;;;;;4.06;76.28;95141.72;5031306;28;20699;-63
2022/03/01 10:23:06;;;;;;;4.83;3.80;;;;;;;4.18;77.25;95120.97;5029752;28;20289;-64
2022/03/01 10:25:35;;;;;;;7.47;3.93;;;;;;;4.15;74.55;95160.56;5031311;28;20277;-63
2022/03/01 10:28:01;;;;;;;6.60;4.00;;;;;;;4.27;74.09;95172.50;5029735;28;20213;-63
2022/03/01 10:30:33;;;;;;;7.83;3.83;;;;;;;4.45;73.20;95181.63;5029816;28;20269;-64
2022/03/01 10:33:16;;;;;;;7.27;4.60;;;;;;;4.49;72.50;95194.84;5031047;28;20293;-62
2022/03/01 10:35:48;;;;;;;5.53;3.53;;;;;;;4.49;71.50;95199.88;5030116;28;20179;-63
2022/03/01 10:38:20;;;;;;;8.90;4.20;;;;;;;4.63;71.67;95173.09;5030934;28;20200;-64
2022/03/01 10:40:45;;;;;;;5.33;3.90;;;;;;;4.55;69.35;95218.00;5031337;28;20178;-62
2022/03/01 10:43:13;;;;;;;9.13;3.57;;;;;;;4.64;70.57;95194.06;5030810;28;20268;-63
2022/03/01 10:45:47;;;;;;;5.73;4.20;;;;;;;4.69;69.37;95202.97;5030997;28;20270;-64
2022/03/01 10:48:30;;;;;;;6.47;3.50;;;;;;;5.06;68.25;95229.53;5034528;28;20206;-63
2022/03/01 10:51:07;;;;;;;9.37;3.90;;;;;;;5.08;67.37;95245.38;5035188;28;20577;-63
2022/03/01 10:53:36;;;;;;;5.20;3.10;;;;;;;5.37;65.83;95272.34;5034797;28;20285;-64
2022/03/01 10:56:08;;;;;;;6.50;3.17;;;;;;;5.59;65.52;95285.41;5035029;28;20215;-63
2022/03/01 10:58:38;;;;;;;6.73;4.00;;;;;;;5.24;66.49;95247.88;5034636;28;20227;-64
2022/03/01 11:01:07;;;;;;;5.13;3.47;;;;;;;4.99;65.78;95254.25;5034833;28;20199;-63
2022/03/01 11:03:33;;;;;;;4.17;2.73;;;;;;;5.03;65.41;95270.00;5034623;28;20209;-64
2022/03/01 11:06:00;;;;;;;4.80;3.93;;;;;;;5.04;66.81;95236.38;5034947;28;20193;-63
2022/03/01 11:08:32;;;;;;;5.00;3.27;;;;;;;5.09;67.22;95202.47;5034764;28;20202;-63
2022/03/01 11:11:00;;;;;;;7.10;4.17;;;;;;;5.33;69.90;95159.16;5034677;28;20217;-63
2022/03/01 11:13:27;;;;;;;6.10;3.87;;;;;;;5.22;69.10;95174.06;5034016;28;20200;-64
2022/03/01 11:16:08;;;;;;;3.90;3.47;;;;;;;5.52;68.82;95179.91;5034272;28;20184;-63
2022/03/01 11:18:50;;;;;;;6.20;4.30;;;;;;;5.54;68.95;95180.63;5032679;28;20207;-63
2022/03/01 11:21:19;;;;;;;6.87;3.97;;;;;;;5.51;70.56;95140.47;5032784;28;20337;-63
2022/03/01 11:23:45;;;;;;;5.73;4.17;;;;;;;5.42;70.80;95123.34;5049439;28;20201;-63
2022/03/01 11:26:15;;;;;;;10.67;4.20;;;;;;;5.35;69.71;95158.19;5034287;28;20200;-63
2022/03/01 11:28:51;;;;;;;5.47;3.83;;;;;;;5.30;70.18;95129.09;5034047;28;20227;-64
2022/03/01 11:31:29;;;;;;;5.20;3.80;;;;;;;5.33;70.30;95127.22;5034333;28;20207;-63